sensor_id;sensor_type;location;lat;lon;timestamp;P1;durP1;ratioP1;P2;durP2;ratioP2
40339;SDS011;26044;50.864;20.658;2024-02-26T05:08:33;45.08;;;23.75;;
40339;SDS011;26044;50.864;20.658;2024-02-26T05:11:07;43.03;;;24.13;;
40339;SDS011;26044;50.864;20.658;2024-02-26T05:13:42;41.40;;;22.88;;
40339;SDS011;26044;50.864;20.658;2024-02-26T05:16:14;45.08;;;23.98;;
40339;SDS011;26044;50.864;20.658;2024-02-26T05:22:06;45.55;;;23.35;;
40339;SDS011;26044;50.864;20.658;2024-02-26T05:24:51;44.83;;;23.17;;
40339;SDS011;26044;50.864;20.658;2024-02-26T08:22:38;22.38;;;10.20;;
40339;SDS011;26044;50.864;20.658;2024-02-26T08:25:34;23.23;;;9.88;;
40339;SDS011;26044;50.864;20.658;2024-02-26T09:08:08;15.95;;;5.03;;
40339;SDS011;26044;50.864;20.658;2024-02-26T09:17:41;14.88;;;5.90;;
40339;SDS011;26044;50.864;20.658;2024-02-26T09:20:34;15.00;;;5.70;;
40339;SDS011;26044;50.864;20.658;2024-02-26T09:23:21;11.48;;;5.00;;
40339;SDS011;26044;50.864;20.658;2024-02-26T09:25:48;8.45;;;4.00;;
40339;SDS011;26044;50.864;20.658;2024-02-26T09:28:15;10.45;;;4.50;;
40339;SDS011;26044;50.864;20.658;2024-02-26T09:30:43;10.75;;;4.43;;
40339;SDS011;26044;50.864;20.658;2024-02-26T09:33:11;11.15;;;5.32;;
40339;SDS011;26044;50.864;20.658;2024-02-26T11:01:48;16.80;;;5.20;;
40339;SDS011;26044;50.864;20.658;2024-02-26T16:16:45;32.60;;;15.88;;
40339;SDS011;26044;50.864;20.658;2024-02-26T16:19:48;29.50;;;14.48;;
40339;SDS011;26044;50.864;20.658;2024-02-26T16:22:15;35.33;;;17.25;;
40339;SDS011;26044;50.864;20.658;2024-02-26T22:34:06;54.72;;;25.95;;
40339;SDS011;26044;50.864;20.658;2024-02-26T22:36:36;52.30;;;26.88;;
40339;SDS011;26044;50.864;20.658;2024-02-26T22:39:12;52.17;;;25.67;;
40339;SDS011;26044;50.864;20.658;2024-02-26T22:42:00;50.47;;;24.58;;
40339;SDS011;26044;50.864;20.658;2024-02-26T22:44:41;50.42;;;24.55;;
40339;SDS011;26044;50.864;20.658;2024-02-26T22:47:11;51.58;;;26.67;;
40339;SDS011;26044;50.864;20.658;2024-02-26T22:49:45;56.85;;;27.08;;
40339;SDS011;26044;50.864;20.658;2024-02-26T22:52:24;55.67;;;26.45;;
40339;SDS011;26044;50.864;20.658;2024-02-26T22:54:58;54.53;;;26.58;;
40339;SDS011;26044;50.864;20.658;2024-02-26T22:57:32;53.70;;;25.95;;
40339;SDS011;26044;50.864;20.658;2024-02-26T23:00:07;51.78;;;26.27;;
40339;SDS011;26044;50.864;20.658;2024-02-26T23:02:53;52.72;;;25.60;;
40339;SDS011;26044;50.864;20.658;2024-02-26T23:12:10;49.85;;;22.30;;
40339;SDS011;26044;50.864;20.658;2024-02-26T23:14:54;49.60;;;23.00;;
40339;SDS011;26044;50.864;20.658;2024-02-26T23:20:59;43.40;;;21.42;;
40339;SDS011;26044;50.864;20.658;2024-02-26T23:23:27;40.53;;;20.17;;
40339;SDS011;26044;50.864;20.658;2024-02-26T23:26:02;43.80;;;20.38;;
40339;SDS011;26044;50.864;20.658;2024-02-26T23:28:29;40.70;;;19.65;;
40339;SDS011;26044;50.864;20.658;2024-02-26T23:31:00;40.50;;;19.23;;
40339;SDS011;26044;50.864;20.658;2024-02-26T23:33:36;41.90;;;19.92;;
40339;SDS011;26044;50.864;20.658;2024-02-26T23:36:06;39.67;;;18.10;;
40339;SDS011;26044;50.864;20.658;2024-02-26T23:38:34;37.80;;;18.38;;
40339;SDS011;26044;50.864;20.658;2024-02-26T23:41:04;37.67;;;17.92;;
40339;SDS011;26044;50.864;20.658;2024-02-26T23:43:35;36.47;;;17.88;;
40339;SDS011;26044;50.864;20.658;2024-02-26T23:46:13;37.58;;;18.55;;
